createdAt,value
2022-09-13T00:01:35.317Z,8.80
2022-09-13T00:04:02.726Z,7.93
2022-09-13T00:06:29.671Z,8.02
2022-09-13T00:08:56.617Z,8.10
2022-09-13T00:11:27.825Z,7.88
2022-09-13T00:13:56.301Z,7.57
2022-09-13T00:16:27.784Z,8.23
2022-09-13T00:18:55.573Z,8.33
2022-09-13T00:21:24.560Z,8.47
2022-09-13T00:23:54.296Z,9.13
2022-09-13T00:26:27.907Z,9.37
2022-09-13T00:28:57.978Z,9.23
2022-09-13T00:31:28.045Z,9.53
2022-09-13T00:33:56.137Z,9.50
2022-09-13T00:36:23.135Z,9.87
2022-09-13T00:38:50.040Z,8.73
2022-09-13T00:41:19.993Z,10.33
2022-09-13T00:43:59.522Z,9.67
2022-09-13T00:46:49.052Z,9.37
2022-09-13T00:49:36.875Z,9.00
2022-09-13T00:52:10.251Z,9.43
2022-09-13T00:54:46.079Z,8.33
2022-09-13T00:57:15.863Z,9.90
2022-09-13T01:00:13.869Z,8.27
2022-09-13T01:02:48.689Z,9.33
2022-09-13T01:05:20.683Z,8.43
2022-09-13T01:07:47.875Z,8.23
2022-09-13T01:10:15.052Z,8.93
2022-09-13T01:13:05.425Z,9.80
2022-09-13T01:15:32.319Z,8.23
2022-09-13T01:17:59.429Z,8.00
2022-09-13T01:21:04.453Z,8.33
2022-09-13T01:24:02.429Z,8.53
2022-09-13T01:27:15.126Z,8.83
2022-09-13T01:30:05.405Z,9.70
2022-09-13T01:33:29.895Z,8.77
2022-09-13T01:36:18.882Z,7.90
2022-09-13T01:39:04.947Z,9.37
2022-09-13T01:42:03.346Z,8.93
2022-09-13T01:44:56.713Z,8.57
2022-09-13T01:47:34.009Z,8.10
2022-09-13T01:50:26.747Z,8.77
2022-09-13T01:53:25.805Z,7.70
2022-09-13T01:56:18.612Z,7.50
2022-09-13T01:58:59.436Z,8.07
2022-09-13T02:01:38.631Z,8.50
2022-09-13T02:04:17.115Z,8.23
2022-09-13T02:06:58.117Z,8.50
2022-09-13T02:09:28.627Z,8.20
2022-09-13T02:12:03.801Z,8.25
2022-09-13T02:14:44.332Z,8.70
2022-09-13T02:17:20.158Z,8.30
2022-09-13T02:19:58.750Z,8.17
2022-09-13T02:22:37.666Z,8.40
2022-09-13T02:25:14.578Z,7.97
2022-09-13T02:27:48.407Z,8.67
2022-09-13T02:30:16.185Z,7.17
2022-09-13T02:33:01.249Z,8.23
2022-09-13T02:35:51.122Z,7.97
2022-09-13T02:38:59.841Z,8.30
2022-09-13T02:41:55.104Z,7.77
2022-09-13T02:44:54.030Z,8.43
2022-09-13T02:47:54.322Z,7.93
2022-09-13T02:50:58.297Z,7.53
2022-09-13T02:53:53.498Z,7.50
2022-09-13T02:56:43.751Z,7.77
2022-09-13T02:59:16.561Z,7.60
2022-09-13T03:01:52.674Z,8.17
2022-09-13T03:04:19.633Z,8.87
2022-09-13T03:06:46.608Z,7.97
2022-09-13T03:09:14.049Z,8.97
2022-09-13T03:11:55.699Z,7.63
2022-09-13T03:15:01.018Z,8.73
2022-09-13T03:18:22.576Z,8.57
2022-09-13T03:21:08.115Z,8.10
2022-09-13T03:24:15.755Z,9.33
2022-09-13T03:27:15.551Z,8.77
2022-09-13T03:30:13.325Z,8.20
2022-09-13T03:33:20.435Z,8.73
2022-09-13T03:35:57.723Z,8.97
2022-09-13T03:38:46.171Z,8.40
2022-09-13T03:41:20.311Z,8.57
2022-09-13T03:43:59.780Z,8.03
2022-09-13T03:46:35.895Z,8.57
2022-09-13T03:49:09.071Z,9.27
2022-09-13T03:51:37.058Z,9.30
2022-09-13T03:54:09.795Z,9.13
2022-09-13T03:56:36.786Z,9.27
2022-09-13T03:59:03.771Z,8.10
2022-09-13T04:01:31.229Z,8.47
2022-09-13T04:03:59.201Z,8.73
2022-09-13T04:06:26.129Z,8.77
2022-09-13T04:08:53.049Z,8.80
2022-09-13T04:11:21.577Z,8.07
2022-09-13T04:13:48.698Z,7.53
2022-09-13T04:16:15.773Z,7.97
2022-09-13T04:18:42.705Z,8.20
2022-09-13T04:21:09.825Z,8.10
2022-09-13T04:23:36.777Z,7.63
2022-09-13T04:26:06.374Z,8.10
2022-09-13T04:28:33.333Z,7.40
2022-09-13T04:31:00.286Z,7.43
2022-09-13T04:33:27.183Z,7.30
2022-09-13T04:36:00.689Z,7.30
2022-09-13T04:38:28.019Z,7.23
2022-09-13T04:40:56.056Z,7.40
2022-09-13T04:43:24.451Z,6.55
2022-09-13T04:45:51.920Z,6.40
2022-09-13T04:48:19.005Z,7.78
2022-09-13T04:50:46.004Z,8.50
2022-09-13T04:53:13.240Z,8.10
2022-09-13T04:55:40.205Z,6.60
2022-09-13T04:58:07.112Z,6.28
2022-09-13T05:00:34.509Z,6.97
2022-09-13T05:03:01.715Z,6.47
2022-09-13T05:05:29.383Z,7.57
2022-09-13T05:07:56.373Z,6.80
2022-09-13T05:10:23.832Z,6.68
2022-09-13T05:12:50.810Z,6.35
2022-09-13T05:15:17.912Z,6.68
2022-09-13T05:17:44.921Z,6.68
2022-09-13T05:20:11.901Z,6.32
2022-09-13T05:22:38.807Z,6.60
2022-09-13T05:25:06.697Z,6.00
2022-09-13T05:27:33.823Z,6.53
2022-09-13T05:30:02.898Z,5.93
2022-09-13T05:32:32.442Z,6.63
2022-09-13T05:34:59.355Z,6.70
2022-09-13T05:37:26.270Z,6.90
2022-09-13T05:40:11.570Z,7.13
2022-09-13T05:42:40.235Z,6.60
2022-09-13T05:45:08.615Z,6.30
2022-09-13T05:47:35.554Z,6.07
2022-09-13T05:50:10.460Z,6.60
2022-09-13T05:52:38.907Z,7.15
2022-09-13T05:55:06.004Z,7.22
2022-09-13T05:57:32.948Z,6.55
2022-09-13T05:59:59.910Z,7.28
2022-09-13T06:02:26.826Z,6.57
2022-09-13T06:04:53.792Z,7.25
2022-09-13T06:07:20.687Z,7.38
2022-09-13T06:09:47.724Z,8.13
2022-09-13T06:12:14.650Z,7.20
2022-09-13T06:14:41.619Z,6.60
2022-09-13T06:17:08.570Z,8.45
2022-09-13T06:19:35.527Z,7.60
2022-09-13T06:22:02.452Z,7.25
2022-09-13T06:24:29.354Z,7.57
2022-09-13T06:26:56.310Z,7.63
2022-09-13T06:29:23.222Z,8.25
2022-09-13T06:31:50.311Z,7.85
2022-09-13T06:34:17.577Z,7.72
2022-09-13T06:36:45.615Z,6.90
2022-09-13T06:39:12.543Z,6.50
2022-09-13T06:41:39.703Z,7.55
2022-09-13T06:44:07.056Z,7.78
2022-09-13T06:46:35.829Z,7.20
2022-09-13T06:49:06.695Z,7.68
2022-09-13T06:51:35.336Z,7.63
2022-09-13T06:54:04.047Z,7.68
2022-09-13T06:56:34.790Z,7.38
2022-09-13T06:59:05.127Z,7.90
2022-09-13T07:01:35.896Z,6.97
2022-09-13T07:04:25.942Z,7.72
2022-09-13T07:06:52.944Z,6.90
2022-09-13T07:09:22.139Z,6.97
2022-09-13T07:11:55.466Z,7.25
2022-09-13T07:14:28.776Z,8.05
2022-09-13T07:16:56.076Z,6.43
2022-09-13T07:19:28.482Z,7.30
2022-09-13T07:21:56.905Z,6.10
2022-09-13T07:24:24.700Z,6.88
2022-09-13T07:26:51.991Z,7.32
2022-09-13T07:29:25.383Z,6.72
2022-09-13T07:31:54.800Z,7.05
2022-09-13T07:34:24.117Z,6.65
2022-09-13T07:36:52.510Z,6.30
2022-09-13T07:39:22.745Z,7.30
2022-09-13T07:41:51.782Z,6.28
2022-09-13T07:44:18.900Z,6.25
2022-09-13T07:46:45.950Z,5.93
2022-09-13T07:49:16.560Z,5.78
2022-09-13T07:51:44.402Z,6.15
2022-09-13T07:54:17.878Z,5.80
2022-09-13T07:56:45.791Z,4.80
2022-09-13T07:59:15.686Z,5.43
2022-09-13T08:01:46.473Z,4.35
2022-09-13T08:04:18.013Z,3.95
2022-09-13T08:06:46.532Z,5.22
2022-09-13T08:09:14.678Z,3.30
2022-09-13T08:11:55.170Z,2.47
2022-09-13T08:14:23.403Z,3.10
2022-09-13T08:16:50.735Z,2.97
2022-09-13T08:19:18.757Z,2.67
2022-09-13T08:21:47.063Z,3.28
2022-09-13T08:24:18.550Z,2.88
2022-09-13T08:26:45.741Z,2.72
2022-09-13T08:29:14.353Z,2.75
2022-09-13T08:31:42.287Z,2.85
2022-09-13T08:34:15.241Z,2.70
2022-09-13T08:36:43.199Z,2.42
2022-09-13T08:39:13.569Z,2.42
2022-09-13T08:41:40.852Z,2.15
2022-09-13T08:44:28.376Z,2.10
2022-09-13T08:47:35.084Z,2.40
2022-09-13T08:50:19.879Z,2.03
2022-09-13T08:53:17.520Z,1.95
2022-09-13T08:56:10.574Z,2.13
2022-09-13T08:58:56.136Z,2.00
2022-09-13T09:01:53.369Z,1.90
2022-09-13T09:04:48.557Z,1.77
2022-09-13T09:07:20.296Z,1.90
2022-09-13T09:10:08.349Z,2.58
2022-09-13T09:12:48.032Z,2.00
2022-09-13T09:15:22.705Z,2.35
2022-09-13T09:18:07.758Z,2.00
2022-09-13T09:20:46.186Z,2.30
2022-09-13T09:23:30.528Z,2.03
2022-09-13T09:26:16.183Z,2.00
2022-09-13T09:28:55.782Z,1.42
2022-09-13T09:32:03.388Z,1.65
2022-09-13T09:35:04.322Z,2.20
2022-09-13T09:37:32.114Z,1.88
2022-09-13T09:40:08.977Z,1.52
2022-09-13T09:42:49.211Z,2.67
2022-09-13T09:45:33.491Z,2.00
2022-09-13T09:48:09.427Z,2.60
2022-09-13T09:50:44.284Z,1.98
2022-09-13T09:53:37.204Z,1.67
2022-09-13T09:56:32.604Z,1.85
2022-09-13T09:59:00.001Z,10.57
2022-09-13T10:01:31.012Z,7.20
2022-09-13T10:04:12.350Z,2.45
2022-09-13T10:06:42.025Z,2.17
2022-09-13T10:09:20.599Z,2.20
2022-09-13T10:11:56.356Z,2.15
2022-09-13T10:14:38.405Z,2.22
2022-09-13T10:17:06.459Z,2.15
2022-09-13T10:19:33.771Z,2.15
2022-09-13T10:22:05.757Z,2.00
2022-09-13T10:24:33.473Z,2.45
2022-09-13T10:27:00.770Z,2.10
2022-09-13T10:29:29.113Z,1.70
2022-09-13T10:32:01.289Z,2.20
2022-09-13T10:34:33.617Z,1.80
2022-09-13T10:37:33.695Z,1.90
2022-09-13T10:40:13.197Z,2.15
2022-09-13T10:42:40.903Z,1.85
2022-09-13T10:45:19.481Z,2.33
2022-09-13T10:47:51.422Z,1.90
2022-09-13T10:50:28.594Z,2.42
2022-09-13T10:52:57.084Z,1.60
2022-09-13T10:55:27.249Z,2.28
2022-09-13T10:58:03.265Z,1.85
2022-09-13T11:01:00.553Z,2.03
2022-09-13T11:03:52.971Z,2.03
2022-09-13T11:06:41.099Z,2.60
2022-09-13T11:09:29.687Z,2.47
2022-09-13T11:12:31.433Z,2.00
2022-09-13T11:15:41.309Z,2.08
2022-09-13T11:18:40.345Z,2.13
2022-09-13T11:21:38.265Z,2.10
2022-09-13T11:24:23.056Z,2.00
2022-09-13T11:27:36.463Z,1.92
2022-09-13T11:30:25.318Z,2.20
2022-09-13T11:33:25.326Z,1.75
2022-09-13T11:36:17.877Z,2.35
2022-09-13T11:39:05.821Z,2.20
2022-09-13T11:42:04.684Z,2.10
2022-09-13T11:45:21.650Z,1.90
2022-09-13T11:48:22.326Z,2.45
2022-09-13T11:51:26.537Z,2.40
2022-09-13T11:54:12.182Z,2.30
2022-09-13T11:56:44.057Z,2.17
2022-09-13T12:00:00.487Z,2.83
2022-09-13T12:03:01.891Z,2.00
2022-09-13T12:05:39.907Z,2.05
2022-09-13T12:08:19.282Z,2.22
2022-09-13T12:11:11.805Z,2.38
2022-09-13T12:14:01.339Z,2.65
2022-09-13T12:17:12.489Z,2.38
2022-09-13T12:19:50.238Z,2.75
2022-09-13T12:22:19.880Z,2.30
2022-09-13T12:24:58.606Z,2.25
2022-09-13T12:27:39.985Z,2.53
2022-09-13T12:30:18.331Z,3.45
2022-09-13T12:32:47.980Z,3.38
2022-09-13T12:35:29.263Z,2.65
2022-09-13T12:38:20.664Z,8.52
2022-09-13T12:41:16.709Z,3.38
2022-09-13T12:44:02.268Z,3.08
2022-09-13T12:47:03.613Z,2.78
2022-09-13T12:50:36.759Z,3.05
2022-09-13T12:53:27.246Z,3.00
2022-09-13T12:56:25.654Z,2.72
2022-09-13T12:59:14.653Z,2.70
2022-09-13T13:01:48.652Z,2.78
2022-09-13T13:04:20.407Z,2.60
2022-09-13T13:06:55.989Z,2.35
2022-09-13T13:09:53.764Z,3.03
2022-09-13T13:12:39.459Z,2.97
2022-09-13T13:15:15.725Z,2.90
2022-09-13T13:17:51.070Z,2.88
2022-09-13T13:20:48.365Z,3.10
2022-09-13T13:23:18.534Z,3.40
2022-09-13T13:26:10.123Z,3.10
2022-09-13T13:28:47.232Z,2.75
2022-09-13T13:31:32.261Z,3.05
2022-09-13T13:34:06.639Z,3.30
2022-09-13T13:36:44.023Z,3.28
2022-09-13T13:39:14.170Z,3.05
2022-09-13T13:41:53.676Z,3.08
2022-09-13T13:44:20.550Z,2.90
2022-09-13T13:46:53.674Z,3.10
2022-09-13T13:49:35.473Z,3.25
2022-09-13T13:52:11.568Z,3.20
2022-09-13T13:54:59.444Z,2.92
2022-09-13T13:57:41.657Z,3.58
2022-09-13T14:00:19.715Z,3.40
2022-09-13T14:02:49.321Z,3.28
2022-09-13T14:06:12.843Z,2.90
2022-09-13T14:12:07.937Z,3.17
2022-09-13T14:15:21.967Z,3.05
2022-09-13T14:18:32.660Z,3.47
2022-09-13T14:21:18.351Z,3.10
2022-09-13T14:23:45.306Z,3.47
2022-09-13T14:26:12.794Z,3.35
2022-09-13T14:28:40.418Z,2.83
2022-09-13T14:31:08.281Z,3.20
2022-09-13T14:33:37.730Z,3.45
2022-09-13T14:36:19.155Z,2.78
2022-09-13T14:38:58.802Z,2.95
2022-09-13T14:41:38.894Z,2.80
2022-09-13T14:44:23.656Z,3.75
2022-09-13T14:47:12.131Z,3.67
2022-09-13T14:49:52.009Z,2.83
2022-09-13T14:52:36.440Z,3.17
2022-09-13T14:55:12.978Z,3.15
2022-09-13T14:57:50.092Z,3.60
2022-09-13T15:00:24.399Z,3.65
2022-09-13T15:03:03.370Z,3.72
2022-09-13T15:05:34.069Z,3.22
2022-09-13T15:08:24.888Z,3.33
2022-09-13T15:10:52.550Z,2.88
2022-09-13T15:13:19.466Z,3.53
2022-09-13T15:15:46.729Z,3.50
2022-09-13T15:18:25.620Z,3.10
2022-09-13T15:21:07.466Z,3.45
2022-09-13T15:23:43.326Z,3.33
2022-09-13T15:26:25.986Z,3.63
2022-09-13T15:28:57.270Z,2.95
2022-09-13T15:31:28.694Z,3.35
2022-09-13T15:34:16.958Z,3.30
2022-09-13T15:36:49.314Z,3.10
2022-09-13T15:39:21.474Z,3.80
2022-09-13T15:41:58.990Z,3.30
2022-09-13T15:44:28.110Z,3.28
2022-09-13T15:47:02.364Z,3.53
2022-09-13T15:49:30.161Z,3.92
2022-09-13T15:52:02.745Z,3.78
2022-09-13T15:54:42.228Z,3.47
2022-09-13T15:57:29.588Z,3.92
2022-09-13T16:00:01.491Z,4.03
2022-09-13T16:02:35.718Z,3.63
2022-09-13T16:05:02.682Z,3.70
2022-09-13T16:07:29.616Z,4.32
2022-09-13T16:09:56.555Z,3.90
2022-09-13T16:12:24.339Z,4.00
2022-09-13T16:14:51.310Z,4.15
2022-09-13T16:17:25.469Z,4.18
2022-09-13T16:19:53.906Z,4.47
2022-09-13T16:22:23.109Z,4.13
2022-09-13T16:24:50.296Z,4.95
2022-09-13T16:27:18.897Z,5.32
2022-09-13T16:29:46.526Z,4.55
2022-09-13T16:32:13.551Z,4.88
2022-09-13T16:34:40.750Z,4.88
2022-09-13T16:37:07.814Z,4.45
2022-09-13T16:39:34.830Z,4.75
2022-09-13T16:42:01.808Z,5.10
2022-09-13T16:44:28.819Z,5.25
2022-09-13T16:46:56.029Z,4.38
2022-09-13T16:49:23.339Z,5.25
2022-09-13T16:51:50.339Z,4.78
2022-09-13T16:54:17.293Z,4.80
2022-09-13T16:56:44.417Z,5.15
2022-09-13T16:59:11.795Z,4.78
2022-09-13T17:01:39.144Z,5.28
2022-09-13T17:04:06.398Z,5.13
2022-09-13T17:06:33.314Z,4.75
2022-09-13T17:09:03.797Z,5.22
2022-09-13T17:11:35.881Z,5.60
2022-09-13T17:14:06.777Z,4.63
2022-09-13T17:16:42.746Z,5.20
2022-09-13T17:19:21.212Z,5.18
2022-09-13T17:21:49.269Z,5.22
2022-09-13T17:24:16.645Z,5.18
2022-09-13T17:26:45.387Z,4.40
2022-09-13T17:29:13.367Z,5.07
2022-09-13T17:31:43.381Z,5.20
2022-09-13T17:34:12.226Z,4.75
2022-09-13T17:36:43.635Z,6.10
2022-09-13T17:39:11.792Z,4.93
2022-09-13T17:41:39.659Z,5.72
2022-09-13T17:44:07.308Z,5.20
2022-09-13T17:46:34.421Z,5.30
2022-09-13T17:49:02.072Z,5.07
2022-09-13T17:51:31.735Z,5.90
2022-09-13T17:54:02.751Z,4.47
2022-09-13T17:56:42.563Z,5.35
2022-09-13T17:59:18.008Z,4.78
2022-09-13T18:01:49.498Z,5.18
2022-09-13T18:04:19.174Z,5.50
2022-09-13T18:06:46.872Z,4.93
2022-09-13T18:09:16.420Z,5.57
2022-09-13T18:11:43.538Z,4.82
2022-09-13T18:14:16.670Z,5.20
2022-09-13T18:16:45.345Z,5.18
2022-09-13T18:19:13.143Z,5.28
2022-09-13T18:21:41.020Z,4.63
2022-09-13T18:24:08.493Z,4.97
2022-09-13T18:26:36.905Z,5.50
2022-09-13T18:29:13.687Z,4.93
2022-09-13T18:31:42.730Z,4.68
2022-09-13T18:34:14.624Z,4.82
2022-09-13T18:36:42.798Z,4.90
2022-09-13T18:39:23.241Z,4.55
2022-09-13T18:41:51.732Z,5.40
2022-09-13T18:44:19.279Z,5.10
2022-09-13T18:46:47.473Z,5.95
2022-09-13T18:49:15.230Z,6.18
2022-09-13T18:51:44.969Z,5.25
2022-09-13T18:54:18.603Z,5.53
2022-09-13T18:56:48.216Z,5.15
2022-09-13T18:59:15.506Z,5.35
2022-09-13T19:01:44.855Z,5.95
2022-09-13T19:04:19.019Z,6.05
2022-09-13T19:07:02.201Z,5.80
2022-09-13T19:09:30.409Z,5.53
2022-09-13T19:11:59.505Z,7.70
2022-09-13T19:14:28.643Z,6.22
2022-09-13T19:17:05.229Z,6.68
2022-09-13T19:19:33.904Z,5.25
2022-09-13T19:22:00.895Z,5.90
2022-09-13T19:24:29.437Z,5.72
2022-09-13T19:26:56.706Z,5.65
2022-09-13T19:29:25.352Z,5.30
2022-09-13T19:31:54.158Z,5.85
2022-09-13T19:34:24.233Z,5.82
2022-09-13T19:36:58.301Z,6.05
2022-09-13T19:39:30.034Z,5.80
2022-09-13T19:42:00.514Z,5.95
2022-09-13T19:44:28.784Z,5.80
2022-09-13T19:47:42.805Z,5.60
2022-09-13T19:49:44.854Z,5.97
2022-09-13T19:52:12.313Z,6.07
2022-09-13T19:54:41.768Z,5.85
2022-09-13T19:57:10.373Z,6.15
2022-09-13T19:59:37.895Z,6.55
2022-09-13T20:02:05.411Z,5.93
2022-09-13T20:04:32.696Z,6.35
2022-09-13T20:07:00.298Z,5.72
2022-09-13T20:09:27.665Z,6.85
2022-09-13T20:12:00.992Z,6.95
2022-09-13T20:14:29.200Z,7.10
2022-09-13T20:16:56.334Z,6.45
2022-09-13T20:19:40.597Z,6.80
2022-09-13T20:22:10.493Z,6.78
2022-09-13T20:24:40.025Z,6.25
2022-09-13T20:27:07.830Z,7.18
2022-09-13T20:29:35.705Z,14.30
2022-09-13T20:32:03.802Z,10.98
2022-09-13T20:34:31.858Z,8.05
2022-09-13T20:36:59.166Z,7.20
2022-09-13T20:39:26.660Z,5.95
2022-09-13T20:41:54.697Z,6.03
2022-09-13T20:44:22.169Z,6.22
2022-09-13T20:46:49.978Z,6.38
2022-09-13T20:49:17.853Z,6.80
2022-09-13T20:51:46.662Z,6.30
2022-09-13T20:54:13.619Z,6.72
2022-09-13T20:56:40.575Z,6.63
2022-09-13T20:59:07.641Z,6.70
2022-09-13T21:01:35.198Z,7.32
2022-09-13T21:04:03.609Z,6.00
2022-09-13T21:06:36.404Z,7.03
2022-09-13T21:09:03.561Z,6.78
2022-09-13T21:11:36.588Z,6.50
2022-09-13T21:14:06.815Z,7.00
2022-09-13T21:16:39.344Z,7.25
2022-09-13T21:19:07.454Z,6.85
2022-09-13T21:21:38.209Z,6.88
2022-09-13T21:24:09.794Z,7.70
2022-09-13T21:26:42.183Z,8.38
2022-09-13T21:29:10.546Z,6.82
2022-09-13T21:31:38.630Z,7.13
2022-09-13T21:34:11.797Z,7.22
2022-09-13T21:36:39.305Z,7.70
2022-09-13T21:39:06.507Z,7.55
2022-09-13T21:41:34.657Z,7.57
2022-09-13T21:44:01.856Z,7.93
2022-09-13T21:46:35.906Z,7.40
2022-09-13T21:49:07.220Z,8.05
2022-09-13T21:51:47.113Z,7.95
2022-09-13T21:54:17.610Z,7.60
2022-09-13T21:56:52.253Z,8.07
2022-09-13T21:59:21.371Z,6.88
2022-09-13T22:01:51.467Z,7.38
2022-09-13T22:04:22.467Z,7.68
2022-09-13T22:06:52.231Z,7.47
2022-09-13T22:09:22.279Z,7.78
2022-09-13T22:11:49.685Z,7.22
2022-09-13T22:14:19.937Z,7.15
2022-09-13T22:16:47.000Z,7.35
2022-09-13T22:19:26.038Z,7.10
2022-09-13T22:21:59.657Z,7.38
2022-09-13T22:24:32.133Z,6.82
2022-09-13T22:26:59.609Z,6.75
2022-09-13T22:29:27.423Z,7.05
2022-09-13T22:31:54.915Z,6.82
2022-09-13T22:34:25.024Z,7.15
2022-09-13T22:36:55.246Z,6.80
2022-09-13T22:39:22.417Z,6.57
2022-09-13T22:41:49.324Z,6.32
2022-09-13T22:44:16.339Z,6.75
2022-09-13T22:46:45.764Z,6.35
2022-09-13T22:49:16.676Z,5.80
2022-09-13T22:51:47.797Z,6.00
2022-09-13T22:54:17.081Z,5.15
2022-09-13T22:56:44.730Z,4.82
2022-09-13T22:59:21.146Z,4.13
2022-09-13T23:01:49.110Z,3.92
2022-09-13T23:04:16.571Z,4.35
2022-09-13T23:06:44.418Z,3.70
2022-09-13T23:09:16.847Z,3.90
2022-09-13T23:11:44.496Z,3.63
2022-09-13T23:14:14.767Z,2.97
2022-09-13T23:16:50.149Z,3.20
2022-09-13T23:19:20.121Z,7.63
2022-09-13T23:21:47.145Z,6.75
2022-09-13T23:24:17.611Z,3.53
2022-09-13T23:26:45.647Z,2.75
2022-09-13T23:29:17.312Z,2.50
2022-09-13T23:31:46.859Z,2.90
2022-09-13T23:34:15.139Z,2.20
2022-09-13T23:36:44.435Z,2.38
2022-09-13T23:39:18.312Z,2.08
2022-09-13T23:41:47.719Z,2.22
2022-09-13T23:44:15.365Z,1.85
2022-09-13T23:46:42.524Z,2.15
2022-09-13T23:49:09.428Z,1.98
2022-09-13T23:51:36.596Z,1.83
2022-09-13T23:54:03.957Z,1.65
2022-09-13T23:56:32.523Z,1.77
2022-09-13T23:59:02.247Z,2.00
